首页
METAR-TAF:

METAR-TAF

机场 :

石油平台

Hoorn-a, 荷兰

纬度: 52-55-05N, 经度: 4-09-01E, 海拔: 41米

当前天气观测

该预报发布于17分钟前的23:55 UTC
风速9节,风向西北
温度 18°C
湿度 88%
气压 1018 hPa
能见度10公里或以上

METAR: EHQE 242355Z AUTO 31009KT 9999 NSC 18/16 Q1018 W///H///

时间: 02:12 (00:12 UTC)


TAF: 丢失

超过4000个机场的气象观测和天气预报(METAR&TAF报告)。

可查询的气象台以黄色和红色小点在地图上表示。

将鼠标移到小点上方,可查看气象台名称。

然后点击查看天气观测和预报。

如需切换地图:点击带黑十字的绿色按钮放大地图;点击带横线的绿色按钮缩小地图;或者点击绿色箭头查看邻近地区的地图。


METAR-TAF: